Time,TemperatureF,DewpointF,PressureIn,WindDirection,WindDirectionDegrees,WindSpeedMPH,WindSpeedGustMPH,Humidity,HourlyPrecipIn,Conditions,Clouds,dailyrainin,SoftwareType,DateUTC
2013-05-07 00:01:00,35.4,31.4,29.99,SE,128,8.0,13.0,85,0.01,,BKN001,0.18,VWS V14.00,2013-05-07 06:01:00,
2013-05-07 00:06:00,35.2,31.4,29.99,SE,131,5.0,11.0,86,0.01,,BKN001,0.00,VWS V14.00,2013-05-07 06:06:00,
2013-05-07 00:11:00,35.2,31.7,30.00,SE,142,8.0,11.0,87,0.01,,BKN001,0.00,VWS V14.00,2013-05-07 06:11:00,
2013-05-07 00:16:00,35.5,31.7,30.00,SE,138,3.0,11.0,86,0.01,,BKN001,0.00,VWS V14.00,2013-05-07 06:16:00,
2013-05-07 00:21:00,35.3,31.8,30.00,SE,138,5.0,11.0,87,0.01,,BKN001,0.00,VWS V14.00,2013-05-07 06:21:00,
2013-05-07 00:26:00,35.3,31.8,30.00,SE,138,5.0,11.0,87,0.01,,BKN001,0.00,VWS V14.00,2013-05-07 06:26:00,
2013-05-07 00:31:00,35.3,31.8,30.00,SE,138,3.0,11.0,87,0.01,,BKN001,0.00,VWS V14.00,2013-05-07 06:31:00,
2013-05-07 00:36:00,35.3,31.8,30.01,SE,138,2.0,7.0,87,0.01,,BKN001,0.00,VWS V14.00,2013-05-07 06:36:00,
2013-05-07 00:41:00,35.2,31.7,30.00,SE,136,0.0,7.0,87,0.01,,BKN001,0.00,VWS V14.00,2013-05-07 06:41:00,
2013-05-07 00:46:00,35.1,31.6,30.00,SE,136,0.0,7.0,87,0.01,,BKN001,0.00,VWS V14.00,2013-05-07 06:46:00,
2013-05-07 00:51:00,35.1,31.6,30.00,SE,136,0.0,7.0,87,0.01,,BKN001,0.00,VWS V14.00,2013-05-07 06:51:00,
2013-05-07 00:56:00,35.0,31.5,29.99,SE,136,0.0,7.0,87,0.01,,BKN001,0.00,VWS V14.00,2013-05-07 06:56:00,
2013-05-07 01:01:00,34.9,31.4,29.99,SE,136,0.0,7.0,87,0.01,,BKN001,0.00,VWS V14.00,2013-05-07 07:01:00,
2013-05-07 01:06:00,34.8,31.3,30.00,SE,136,3.0,3.0,87,0.00,,BKN001,0.00,VWS V14.00,2013-05-07 07:06:00,
2013-05-07 01:11:00,34.6,31.1,30.00,SE,136,0.0,3.0,87,0.00,,BKN001,0.00,VWS V14.00,2013-05-07 07:11:00,
2013-05-07 01:16:00,34.4,30.9,30.00,SE,136,0.0,3.0,87,0.00,,BKN001,0.00,VWS V14.00,2013-05-07 07:16:00,
2013-05-07 01:21:00,34.1,30.9,30.00,SE,136,0.0,3.0,88,0.00,,BKN001,0.00,VWS V14.00,2013-05-07 07:21:00,
2013-05-07 01:26:00,33.7,30.8,30.00,SE,136,2.0,3.0,89,0.00,,BKN001,0.00,VWS V14.00,2013-05-07 07:26:00,
2013-05-07 01:31:00,33.6,30.7,30.00,SE,136,0.0,3.0,89,0.00,,BKN001,0.00,VWS V14.00,2013-05-07 07:31:00,
2013-05-07 01:36:00,33.5,30.9,30.00,SE,136,0.0,3.0,90,0.00,,BKN001,0.00,VWS V14.00,2013-05-07 07:36:00,
2013-05-07 01:41:00,33.5,30.9,30.01,SE,136,0.0,3.0,90,0.00,,BKN001,0.00,VWS V14.00,2013-05-07 07:41:00,
2013-05-07 01:46:00,33.3,30.7,30.01,SE,136,2.0,4.0,90,0.00,,BKN001,0.00,VWS V14.00,2013-05-07 07:46:00,
2013-05-07 01:51:00,33.3,31.0,30.01,SE,136,3.0,6.0,91,0.00,,BKN001,0.00,VWS V14.00,2013-05-07 07:51:00,
2013-05-07 01:56:00,33.2,30.9,30.01,SE,137,4.0,6.0,91,0.00,,BKN001,0.00,VWS V14.00,2013-05-07 07:56:00,
2013-05-07 02:01:00,32.8,30.5,30.01,SSE,155,6.0,9.0,91,0.00,,BKN001,0.00,VWS V14.00,2013-05-07 08:01:00,
2013-05-07 02:06:00,32.7,30.4,30.01,South,180,8.0,10.0,91,0.00,,BKN001,0.00,VWS V14.00,2013-05-07 08:06:00,
2013-05-07 10:51:00,48.1,29.9,29.96,SSW,207,5.0,15.0,49,0.00,,BKN001,0.00,VWS V14.00,2013-05-07 16:51:00,
2013-05-07 10:56:00,48.6,29.3,29.96,SE,130,14.0,15.0,47,0.00,,BKN001,0.00,VWS V14.00,2013-05-07 16:56:00,
2013-05-07 11:01:00,48.2,27.3,29.96,SSW,197,1.0,15.0,44,0.00,,BKN001,0.00,VWS V14.00,2013-05-07 17:01:00,
2013-05-07 11:06:00,48.5,27.0,29.95,South,188,3.0,8.0,43,0.00,,BKN001,0.00,VWS V14.00,2013-05-07 17:06:00,
2013-05-07 11:11:00,47.7,26.9,29.95,SSW,192,3.0,14.0,44,0.00,,BKN001,0.00,VWS V14.00,2013-05-07 17:11:00,
2013-05-07 11:16:00,49.2,29.3,29.94,SE,126,9.0,14.0,46,0.00,,BKN001,0.00,VWS V14.00,2013-05-07 17:16:00,
2013-05-07 11:21:00,50.3,29.2,29.94,SSE,160,11.0,17.0,44,0.00,,BKN001,0.00,VWS V14.00,2013-05-07 17:21:00,
2013-05-07 11:26:00,49.8,28.8,29.94,SE,139,7.0,18.0,44,0.00,,BKN001,0.00,VWS V14.00,2013-05-07 17:26:00,
2013-05-07 11:31:00,50.7,28.5,29.94,SE,145,8.0,18.0,42,0.00,,BKN001,0.00,VWS V14.00,2013-05-07 17:31:00,
2013-05-07 11:36:00,50.9,28.1,29.93,SE,136,12.0,19.0,41,0.00,,BKN001,0.00,VWS V14.00,2013-05-07 17:36:00,
2013-05-07 11:41:00,49.1,27.6,29.93,SE,138,12.0,19.0,43,0.00,,BKN001,0.00,VWS V14.00,2013-05-07 17:41:00,
2013-05-07 11:46:00,49.1,29.2,29.93,SE,131,14.0,19.0,46,0.00,,BKN001,0.00,VWS V14.00,2013-05-07 17:46:00,
2013-05-07 11:51:00,49.9,28.9,29.93,SSE,155,14.0,24.0,44,0.00,,BKN001,0.00,VWS V14.00,2013-05-07 17:51:00,
2013-05-07 11:56:00,49.0,27.5,29.93,SE,135,11.0,24.0,43,0.00,,BKN001,0.00,VWS V14.00,2013-05-07 17:56:00,
2013-05-07 12:01:00,49.5,29.6,29.92,SE,146,14.0,24.0,46,0.00,,BKN001,0.00,VWS V14.00,2013-05-07 18:01:00,
2013-05-07 12:06:00,48.3,29.5,29.93,SSE,160,8.0,20.0,48,0.00,,BKN001,0.00,VWS V14.00,2013-05-07 18:06:00,
2013-05-07 12:11:00,48.3,30.5,29.92,SE,130,16.0,20.0,50,0.00,,BKN001,0.00,VWS V14.00,2013-05-07 18:11:00,
2013-05-07 12:16:00,48.2,28.9,29.92,SE,136,12.0,20.0,47,0.00,,BKN001,0.00,VWS V14.00,2013-05-07 18:16:00,
2013-05-07 12:21:00,48.6,29.8,29.92,SE,136,11.0,20.0,48,0.00,,BKN001,0.00,VWS V14.00,2013-05-07 18:21:00,
2013-05-07 12:26:00,48.1,29.4,29.92,SE,130,9.0,20.0,48,0.00,,BKN001,0.00,VWS V14.00,2013-05-07 18:26:00,
2013-05-07 12:31:00,49.0,30.2,29.92,SE,139,10.0,20.0,48,0.00,,BKN001,0.00,VWS V14.00,2013-05-07 18:31:00,
2013-05-07 12:36:00,48.3,29.0,29.92,SE,146,13.0,18.0,47,0.00,,BKN001,0.00,VWS V14.00,2013-05-07 18:36:00,
2013-05-07 12:41:00,49.2,30.4,29.92,South,187,17.0,22.0,48,0.00,,BKN001,0.00,VWS V14.00,2013-05-07 18:41:00,
2013-05-07 12:46:00,48.5,29.2,29.92,SE,135,20.0,22.0,47,0.00,,BKN001,0.00,VWS V14.00,2013-05-07 18:46:00,
2013-05-07 12:51:00,47.4,29.7,29.91,SSE,147,14.0,22.0,50,0.00,,BKN001,0.00,VWS V14.00,2013-05-07 18:51:00,
2013-05-07 12:56:00,48.5,30.7,29.91,SSE,158,15.0,22.0,50,0.00,,BKN001,0.00,VWS V14.00,2013-05-07 18:56:00,
2013-05-07 13:01:00,48.4,29.1,29.91,SE,146,12.0,23.0,47,0.00,,BKN001,0.00,VWS V14.00,2013-05-07 19:01:00,
2013-05-07 13:06:00,49.9,30.5,29.91,SE,139,12.0,18.0,47,0.00,,BKN001,0.00,VWS V14.00,2013-05-07 19:06:00,
2013-05-07 13:11:00,50.5,29.4,29.90,SSE,153,17.0,20.0,44,0.00,,BKN001,0.00,VWS V14.00,2013-05-07 19:11:00,
2013-05-07 13:16:00,50.0,29.0,29.90,SSW,200,21.0,21.0,44,0.00,,BKN001,0.00,VWS V14.00,2013-05-07 19:16:00,
2013-05-07 13:21:00,50.8,27.4,29.90,South,170,13.0,24.0,40,0.00,,BKN001,0.00,VWS V14.00,2013-05-07 19:21:00,
2013-05-07 13:26:00,49.2,28.8,29.89,SW,236,11.0,24.0,45,0.00,,BKN001,0.00,VWS V14.00,2013-05-07 19:26:00,
2013-05-07 13:31:00,49.7,28.1,29.89,SE,141,8.0,24.0,43,0.00,,BKN001,0.00,VWS V14.00,2013-05-07 19:31:00,
2013-05-07 13:36:00,50.5,28.3,29.89,SW,229,15.0,22.0,42,0.00,,BKN001,0.00,VWS V14.00,2013-05-07 19:36:00,
2013-05-07 13:41:00,49.4,27.9,29.89,South,188,20.0,22.0,43,0.00,,BKN001,0.00,VWS V14.00,2013-05-07 19:41:00,
2013-05-07 13:46:00,50.2,29.1,29.88,SSE,155,12.0,23.0,44,0.00,,BKN001,0.00,VWS V14.00,2013-05-07 19:46:00,
2013-05-07 13:51:00,50.8,28.0,29.89,SSE,162,10.0,24.0,41,0.00,,BKN001,0.00,VWS V14.00,2013-05-07 19:51:00,
2013-05-07 13:56:00,50.0,29.0,29.88,SSW,204,13.0,24.0,44,0.00,,BKN001,0.00,VWS V14.00,2013-05-07 19:56:00,
2013-05-07 14:01:00,50.5,27.1,29.88,South,191,18.0,24.0,40,0.00,,BKN001,0.00,VWS V14.00,2013-05-07 20:01:00,
2013-05-07 14:06:00,50.2,28.0,29.88,SW,217,17.0,25.0,42,0.00,,BKN001,0.00,VWS V14.00,2013-05-07 20:06:00,
2013-05-07 14:11:00,49.5,27.4,29.88,SSE,159,21.0,33.0,42,0.00,,BKN001,0.00,VWS V14.00,2013-05-07 20:11:00,
2013-05-07 14:16:00,48.7,28.3,29.88,South,180,21.0,33.0,45,0.00,,BKN001,0.00,VWS V14.00,2013-05-07 20:16:00,
2013-05-07 14:21:00,48.4,28.6,29.88,SSE,158,17.0,33.0,46,0.00,,BKN001,0.00,VWS V14.00,2013-05-07 20:21:00,
2013-05-07 14:26:00,49.7,26.4,29.88,South,172,20.0,33.0,40,0.00,,BKN001,0.00,VWS V14.00,2013-05-07 20:26:00,
2013-05-07 14:31:00,49.9,27.7,29.88,SW,225,11.0,33.0,42,0.00,,BKN001,0.00,VWS V14.00,2013-05-07 20:31:00,
2013-05-07 14:36:00,49.2,27.1,29.88,South,169,12.0,23.0,42,0.00,,BKN001,0.00,VWS V14.00,2013-05-07 20:36:00,
2013-05-07 14:41:00,48.1,30.4,29.89,ESE,120,20.0,27.0,50,0.00,,BKN001,0.00,VWS V14.00,2013-05-07 20:41:00,
2013-05-07 14:46:00,49.0,30.7,29.88,ESE,118,13.0,28.0,49,0.00,,BKN001,0.00,VWS V14.00,2013-05-07 20:46:00,
2013-05-07 14:51:00,48.8,29.5,29.88,SE,128,15.0,28.0,47,0.00,,BKN001,0.00,VWS V14.00,2013-05-07 20:51:00,
2013-05-07 14:56:00,48.4,29.6,29.88,SSE,152,10.0,28.0,48,0.00,,BKN001,0.00,VWS V14.00,2013-05-07 20:56:00,
2013-05-07 15:01:00,48.6,29.3,29.88,ESE,120,9.0,28.0,47,0.00,,BKN001,0.00,VWS V14.00,2013-05-07 21:01:00,
2013-05-07 15:06:00,48.5,27.0,29.88,South,187,11.0,21.0,43,0.00,,BKN001,0.00,VWS V14.00,2013-05-07 21:06:00,
2013-05-07 15:11:00,50.4,29.9,29.87,WSW,243,16.0,21.0,45,0.00,,BKN001,0.00,VWS V14.00,2013-05-07 21:11:00,
2013-05-07 15:16:00,50.0,29.5,29.87,SSE,168,12.0,22.0,45,0.00,,BKN001,0.00,VWS V14.00,2013-05-07 21:16:00,
2013-05-07 15:20:00,49.6,28.0,29.87,SSW,193,19.0,22.0,43,0.00,,BKN001,0.00,VWS V14.00,2013-05-07 21:20:00,
2013-05-07 15:25:00,48.8,27.3,29.86,SSW,200,35.0,37.0,43,0.00,,BKN001,0.00,VWS V14.00,2013-05-07 21:25:00,
2013-05-07 15:30:00,47.0,28.3,29.87,SSE,159,24.0,37.0,48,0.00,,BKN001,0.00,VWS V14.00,2013-05-07 21:30:00,
2013-05-07 15:35:00,45.9,29.8,29.87,SE,141,18.0,29.0,53,0.00,,BKN001,0.00,VWS V14.00,2013-05-07 21:35:00,
2013-05-07 15:41:00,45.9,29.3,29.88,SSE,166,14.0,29.0,52,0.00,,BKN001,0.00,VWS V14.00,2013-05-07 21:41:00,
2013-05-07 15:46:00,46.4,29.3,29.88,South,172,13.0,29.0,51,0.00,,BKN001,0.00,VWS V14.00,2013-05-07 21:46:00,
2013-05-07 15:51:00,45.7,30.0,29.89,ESE,117,18.0,29.0,54,0.00,,BKN001,0.00,VWS V14.00,2013-05-07 21:51:00,
2013-05-07 15:56:00,44.6,30.3,29.88,ESE,120,15.0,29.0,57,0.00,,BKN001,0.00,VWS V14.00,2013-05-07 21:56:00,
2013-05-07 16:01:00,45.4,31.1,29.88,SSE,164,5.0,29.0,57,0.00,,BKN001,0.00,VWS V14.00,2013-05-07 22:01:00,
2013-05-07 16:06:00,46.3,30.6,29.88,ESE,114,12.0,15.0,54,0.00,,BKN001,0.00,VWS V14.00,2013-05-07 22:06:00,
2013-05-07 16:11:00,46.5,30.8,29.88,ESE,114,4.0,15.0,54,0.00,,BKN001,0.00,VWS V14.00,2013-05-07 22:11:00,
2013-05-07 16:16:00,46.6,30.4,29.88,SSE,162,4.0,15.0,53,0.00,,BKN001,0.00,VWS V14.00,2013-05-07 22:16:00,
2013-05-07 16:21:00,46.5,26.3,29.88,WSW,249,22.0,27.0,45,0.00,,BKN001,0.00,VWS V14.00,2013-05-07 22:21:00,
2013-05-07 16:26:00,46.3,25.6,29.88,SW,224,17.0,28.0,44,0.00,,BKN001,0.00,VWS V14.00,2013-05-07 22:26:00,
2013-05-07 16:31:00,45.6,27.1,29.88,West,269,23.0,28.0,48,0.00,,BKN001,0.00,VWS V14.00,2013-05-07 22:31:00,
2013-05-07 16:36:00,45.1,28.1,29.87,WSW,248,18.0,31.0,51,0.00,,BKN001,0.00,VWS V14.00,2013-05-07 22:36:00,
2013-05-07 16:41:00,45.3,28.7,29.88,SW,233,14.0,31.0,52,0.00,,BKN001,0.00,VWS V14.00,2013-05-07 22:41:00,
2013-05-07 16:46:00,45.8,28.7,29.88,WSW,240,15.0,31.0,51,0.00,,BKN001,0.00,VWS V14.00,2013-05-07 22:46:00,
2013-05-07 16:50:00,46.0,29.4,29.88,West,259,9.0,31.0,52,0.00,,BKN001,0.00,VWS V14.00,2013-05-07 22:50:00,
2013-05-07 16:55:00,45.8,29.2,29.88,WSW,252,11.0,31.0,52,0.00,,BKN001,0.00,VWS V14.00,2013-05-07 22:55:00,
2013-05-07 17:00:00,46.3,29.6,29.87,WSW,251,13.0,31.0,52,0.00,,BKN001,0.00,VWS V14.00,2013-05-07 23:00:00,
2013-05-07 17:05:00,47.1,28.9,29.87,WSW,255,9.0,14.0,49,0.00,,BKN001,0.00,VWS V14.00,2013-05-07 23:05:00,
2013-05-07 17:10:00,46.7,28.6,29.87,WSW,256,3.0,14.0,49,0.00,,BKN001,0.00,VWS V14.00,2013-05-07 23:10:00,
2013-05-07 17:15:00,47.3,30.1,29.87,WSW,241,8.0,14.0,51,0.00,,BKN001,0.00,VWS V14.00,2013-05-07 23:15:00,
2013-05-07 17:20:00,48.6,29.8,29.86,WSW,254,11.0,14.0,48,0.00,,BKN001,0.00,VWS V14.00,2013-05-07 23:20:00,
2013-05-07 17:25:00,47.6,28.9,29.86,SSW,201,10.0,18.0,48,0.00,,BKN001,0.00,VWS V14.00,2013-05-07 23:25:00,
2013-05-07 17:30:00,47.4,28.2,29.86,South,172,6.0,18.0,47,0.00,,BKN001,0.00,VWS V14.00,2013-05-07 23:30:00,
2013-05-07 17:35:00,47.3,28.1,29.87,SE,125,2.0,11.0,47,0.00,,BKN001,0.00,VWS V14.00,2013-05-07 23:35:00,
2013-05-07 17:40:00,47.7,28.5,29.87,SSW,198,10.0,15.0,47,0.00,,BKN001,0.00,VWS V14.00,2013-05-07 23:40:00,
2013-05-07 17:45:00,47.3,28.6,29.86,SSW,210,7.0,15.0,48,0.00,,BKN001,0.00,VWS V14.00,2013-05-07 23:45:00,
2013-05-07 17:50:00,49.0,30.2,29.86,South,190,7.0,15.0,48,0.00,,BKN001,0.00,VWS V14.00,2013-05-07 23:50:00,
2013-05-07 17:55:00,50.1,29.6,29.86,SSE,147,8.0,15.0,45,0.00,,BKN001,0.00,VWS V14.00,2013-05-07 23:55:00,
2013-05-07 18:00:00,50.1,29.0,29.86,SE,135,13.0,17.0,44,0.00,,BKN001,0.00,VWS V14.00,2013-05-08 00:00:00,
2013-05-07 18:05:00,49.9,28.3,29.86,ESE,122,11.0,16.0,43,0.00,,BKN001,0.00,VWS V14.00,2013-05-08 00:05:00,
2013-05-07 18:10:00,49.9,27.7,29.86,South,187,10.0,16.0,42,0.00,,BKN001,0.00,VWS V14.00,2013-05-08 00:10:00,
2013-05-07 18:15:00,50.1,27.3,29.85,SE,141,17.0,18.0,41,0.00,,BKN001,0.00,VWS V14.00,2013-05-08 00:15:00,
2013-05-07 18:20:00,50.2,26.8,29.85,SSE,161,11.0,18.0,40,0.00,,BKN001,0.00,VWS V14.00,2013-05-08 00:20:00,
2013-05-07 18:25:00,49.7,26.4,29.85,South,174,12.0,18.0,40,0.00,,BKN001,0.00,VWS V14.00,2013-05-08 00:25:00,
2013-05-07 18:30:00,49.3,27.8,29.85,SSE,163,6.0,18.0,43,0.00,,BKN001,0.00,VWS V14.00,2013-05-08 00:30:00,
2013-05-07 18:35:00,49.5,27.4,29.85,South,175,10.0,10.0,42,0.00,,BKN001,0.00,VWS V14.00,2013-05-08 00:35:00,
2013-05-07 18:40:00,49.2,27.7,29.84,ESE,121,7.0,12.0,43,0.00,,BKN001,0.00,VWS V14.00,2013-05-08 00:40:00,
2013-05-07 18:45:00,49.0,26.9,29.84,SE,136,3.0,12.0,42,0.00,,BKN001,0.00,VWS V14.00,2013-05-08 00:45:00,
2013-05-07 18:50:00,49.0,26.3,29.84,ESE,118,6.0,12.0,41,0.00,,BKN001,0.00,VWS V14.00,2013-05-08 00:50:00,
2013-05-07 18:55:00,48.1,26.1,29.84,SE,139,5.0,12.0,42,0.00,,BKN001,0.00,VWS V14.00,2013-05-08 00:55:00,
2013-05-07 19:00:00,47.6,25.7,29.84,SSE,148,5.0,12.0,42,0.00,,BKN001,0.00,VWS V14.00,2013-05-08 01:00:00,
2013-05-07 19:06:00,47.3,26.0,29.83,SSE,167,6.0,8.0,43,0.00,,BKN001,0.00,VWS V14.00,2013-05-08 01:06:00,
2013-05-07 19:11:00,47.0,26.2,29.83,SSE,157,5.0,9.0,44,0.00,,BKN001,0.00,VWS V14.00,2013-05-08 01:11:00,
2013-05-07 19:16:00,46.8,26.0,29.83,SSE,150,4.0,9.0,44,0.00,,BKN001,0.00,VWS V14.00,2013-05-08 01:16:00,
2013-05-07 19:21:00,46.7,26.0,29.83,SSE,148,5.0,9.0,44,0.00,,BKN001,0.00,VWS V14.00,2013-05-08 01:21:00,
2013-05-07 19:25:00,46.6,25.9,29.83,SSE,161,5.0,9.0,44,0.00,,BKN001,0.00,VWS V14.00,2013-05-08 01:25:00,
2013-05-07 19:30:00,46.4,25.7,29.83,SSE,161,5.0,9.0,44,0.00,,BKN001,0.00,VWS V14.00,2013-05-08 01:30:00,
2013-05-07 19:35:00,46.2,25.5,29.83,SSE,161,3.0,7.0,44,0.00,,BKN001,0.00,VWS V14.00,2013-05-08 01:35:00,
2013-05-07 19:40:00,45.8,25.7,29.83,SE,143,5.0,9.0,45,0.00,,BKN001,0.00,VWS V14.00,2013-05-08 01:40:00,
2013-05-07 19:45:00,45.4,25.9,29.83,SE,143,2.0,9.0,46,0.00,,BKN001,0.00,VWS V14.00,2013-05-08 01:45:00,
2013-05-07 19:50:00,44.7,26.2,29.84,SE,143,0.0,9.0,48,0.00,,BKN001,0.00,VWS V14.00,2013-05-08 01:50:00,
2013-05-07 19:55:00,44.5,26.0,29.84,SE,142,0.0,9.0,48,0.00,,BKN001,0.00,VWS V14.00,2013-05-08 01:55:00,
2013-05-07 20:00:00,44.1,25.2,29.83,SE,142,2.0,9.0,47,0.00,,BKN001,0.00,VWS V14.00,2013-05-08 02:00:00,
2013-05-07 20:05:00,44.0,25.1,29.84,SE,143,4.0,5.0,47,0.00,,BKN001,0.00,VWS V14.00,2013-05-08 02:05:00,
2013-05-07 20:10:00,43.5,25.1,29.83,SE,143,3.0,5.0,48,0.00,,BKN001,0.00,VWS V14.00,2013-05-08 02:10:00,
2013-05-07 20:15:00,43.1,25.3,29.84,SE,143,2.0,5.0,49,0.00,,BKN001,0.00,VWS V14.00,2013-05-08 02:15:00,
2013-05-07 20:20:00,42.6,25.3,29.84,SE,143,0.0,5.0,50,0.00,,BKN001,0.00,VWS V14.00,2013-05-08 02:20:00,
2013-05-07 20:25:00,42.4,25.1,29.84,SE,142,1.0,5.0,50,0.00,,BKN001,0.00,VWS V14.00,2013-05-08 02:25:00,
2013-05-07 20:30:00,41.8,25.0,29.83,SE,143,0.0,5.0,51,0.00,,BKN001,0.00,VWS V14.00,2013-05-08 02:30:00,
2013-05-07 20:35:00,40.9,25.5,29.84,SE,142,0.0,1.0,54,0.00,,BKN001,0.00,VWS V14.00,2013-05-08 02:35:00,
2013-05-07 20:40:00,40.1,25.2,29.83,SE,142,0.0,1.0,55,0.00,,BKN001,0.00,VWS V14.00,2013-05-08 02:40:00,
2013-05-07 20:45:00,39.7,25.3,29.83,SE,143,1.0,3.0,56,0.00,,BKN001,0.00,VWS V14.00,2013-05-08 02:45:00,
2013-05-07 20:50:00,39.5,26.0,29.84,SE,143,0.0,3.0,58,0.00,,BKN001,0.00,VWS V14.00,2013-05-08 02:50:00,
2013-05-07 20:55:00,39.1,26.0,29.84,SE,143,0.0,3.0,59,0.00,,BKN001,0.00,VWS V14.00,2013-05-08 02:55:00,
2013-05-07 21:00:00,38.8,26.5,29.84,SE,142,0.0,3.0,61,0.00,,BKN001,0.00,VWS V14.00,2013-05-08 03:00:00,
2013-05-07 21:05:00,38.6,26.3,29.85,SE,142,0.0,1.0,61,0.00,,BKN001,0.00,VWS V14.00,2013-05-08 03:05:00,
2013-05-07 21:10:00,37.9,26.1,29.85,SE,143,4.0,6.0,62,0.00,,BKN001,0.00,VWS V14.00,2013-05-08 03:10:00,
2013-05-07 21:15:00,37.5,26.5,29.86,SE,143,5.0,6.0,64,0.00,,BKN001,0.00,VWS V14.00,2013-05-08 03:15:00,
2013-05-07 21:20:00,37.3,26.3,29.86,SE,143,1.0,6.0,64,0.00,,BKN001,0.00,VWS V14.00,2013-05-08 03:20:00,
2013-05-07 21:25:00,36.5,25.5,29.87,SE,142,2.0,6.0,64,0.00,,BKN001,0.00,VWS V14.00,2013-05-08 03:25:00,
2013-05-07 21:30:00,35.5,25.3,29.87,SE,143,0.0,6.0,66,0.00,,BKN001,0.00,VWS V14.00,2013-05-08 03:30:00,
2013-05-07 21:35:00,35.0,25.2,29.87,SE,143,0.0,0.0,67,0.00,,BKN001,0.00,VWS V14.00,2013-05-08 03:35:00,
2013-05-07 21:40:00,34.6,24.8,29.87,SE,143,0.0,0.0,67,0.00,,BKN001,0.00,VWS V14.00,2013-05-08 03:40:00,
2013-05-07 21:45:00,34.4,24.6,29.88,SE,143,0.0,0.0,67,0.00,,BKN001,0.00,VWS V14.00,2013-05-08 03:45:00,
2013-05-07 21:50:00,34.4,24.6,29.88,SE,143,0.0,1.0,67,0.00,,BKN001,0.00,VWS V14.00,2013-05-08 03:50:00,
2013-05-07 21:55:00,34.0,24.6,29.88,SE,143,3.0,3.0,68,0.00,,BKN001,0.00,VWS V14.00,2013-05-08 03:55:00,
2013-05-07 22:00:00,34.4,25.0,29.88,SE,142,2.0,3.0,68,0.00,,BKN001,0.00,VWS V14.00,2013-05-08 04:00:00,
2013-05-07 22:01:00,34.4,25.0,29.88,SE,143,2.0,3.0,68,0.00,,BKN001,0.00,VWS V14.00,2013-05-08 04:01:00,
2013-05-07 22:06:00,34.4,26.0,29.88,SE,142,4.0,4.0,71,0.00,,BKN001,0.00,VWS V14.00,2013-05-08 04:06:00,
2013-05-07 22:11:00,34.2,25.8,29.88,SE,143,0.0,4.0,71,0.00,,BKN001,0.00,VWS V14.00,2013-05-08 04:11:00,
2013-05-07 22:16:00,33.9,25.2,29.88,SE,143,1.0,4.0,70,0.00,,BKN001,0.00,VWS V14.00,2013-05-08 04:16:00,
2013-05-07 22:21:00,34.2,25.8,29.88,SE,143,4.0,5.0,71,0.00,,BKN001,0.00,VWS V14.00,2013-05-08 04:21:00,
2013-05-07 22:26:00,33.4,25.0,29.88,SE,143,3.0,6.0,71,0.00,,BKN001,0.00,VWS V14.00,2013-05-08 04:26:00,
2013-05-07 22:31:00,33.1,24.4,29.88,SE,143,0.0,6.0,70,0.00,,BKN001,0.00,VWS V14.00,2013-05-08 04:31:00,
2013-05-07 22:36:00,33.1,24.7,29.89,SE,143,2.0,4.0,71,0.00,,BKN001,0.00,VWS V14.00,2013-05-08 04:36:00,
2013-05-07 22:41:00,32.9,24.9,29.89,SE,144,3.0,5.0,72,0.00,,BKN001,0.00,VWS V14.00,2013-05-08 04:41:00,
2013-05-07 22:46:00,32.5,24.8,29.89,SE,145,4.0,5.0,73,0.00,,BKN001,0.00,VWS V14.00,2013-05-08 04:46:00,
2013-05-07 22:51:00,33.0,25.3,29.89,SE,145,5.0,5.0,73,0.00,,BKN001,0.00,VWS V14.00,2013-05-08 04:51:00,
2013-05-07 22:56:00,33.6,25.2,29.90,SE,146,4.0,5.0,71,0.00,,BKN001,0.00,VWS V14.00,2013-05-08 04:56:00,
2013-05-07 23:01:00,33.6,24.9,29.90,SE,146,2.0,5.0,70,0.00,,BKN001,0.00,VWS V14.00,2013-05-08 05:01:00,
2013-05-07 23:06:00,32.5,24.5,29.90,SE,146,3.0,3.0,72,0.00,,BKN001,0.00,VWS V14.00,2013-05-08 05:06:00,
2013-05-07 23:11:00,31.9,24.2,29.90,SE,138,4.0,5.0,73,0.00,,BKN001,0.00,VWS V14.00,2013-05-08 05:11:00,
2013-05-07 23:16:00,31.7,24.0,29.90,SE,135,2.0,6.0,73,0.00,,BKN001,0.00,VWS V14.00,2013-05-08 05:16:00,
2013-05-07 23:21:00,32.3,24.6,29.89,SE,135,2.0,6.0,73,0.00,,BKN001,0.00,VWS V14.00,2013-05-08 05:21:00,
2013-05-07 23:26:00,32.1,24.8,29.90,SE,135,0.0,6.0,74,0.00,,BKN001,0.00,VWS V14.00,2013-05-08 05:26:00,
2013-05-07 23:31:00,32.1,24.8,29.90,SE,135,3.0,6.0,74,0.00,,BKN001,0.00,VWS V14.00,2013-05-08 05:31:00,
2013-05-07 23:36:00,31.9,24.9,29.90,SE,139,5.0,6.0,75,0.00,,BKN001,0.00,VWS V14.00,2013-05-08 05:36:00,
2013-05-07 23:41:00,31.2,24.5,29.90,SSE,163,6.0,8.0,76,0.00,,BKN001,0.00,VWS V14.00,2013-05-08 05:41:00,
2013-05-07 23:46:00,30.5,24.2,29.90,SSE,163,0.0,8.0,77,0.00,,BKN001,0.00,VWS V14.00,2013-05-08 05:46:00,
2013-05-07 23:51:00,30.6,24.6,29.91,SSE,163,0.0,8.0,78,0.00,,BKN001,0.00,VWS V14.00,2013-05-08 05:51:00,
2013-05-07 23:56:00,30.9,24.5,29.91,SSE,163,3.0,8.0,77,0.00,,BKN001,0.00,VWS V14.00,2013-05-08 05:56:00,